createdAt,value
2023-01-11T00:01:20.558Z,100054.78
2023-01-11T00:04:00.100Z,100054.84
2023-01-11T00:06:27.621Z,100050.38
2023-01-11T00:08:56.482Z,100052.97
2023-01-11T00:11:23.464Z,100051.31
2023-01-11T00:13:51.016Z,100044.31
2023-01-11T00:16:19.444Z,100046.00
2023-01-11T00:18:46.888Z,100041.53
2023-01-11T00:21:15.131Z,100040.63
2023-01-11T00:23:43.415Z,100029.22
2023-01-11T00:26:13.976Z,100039.03
2023-01-11T00:28:41.391Z,100035.63
2023-01-11T00:31:09.882Z,100027.91
2023-01-11T00:33:37.329Z,100030.50
2023-01-11T00:36:05.879Z,100030.34
2023-01-11T00:38:46.981Z,100030.28
2023-01-11T00:41:34.367Z,100032.91
2023-01-11T00:44:20.033Z,100039.91
2023-01-11T00:47:05.747Z,100040.69
2023-01-11T00:49:33.245Z,100030.31
2023-01-11T00:52:00.936Z,100041.53
2023-01-11T00:54:28.107Z,100039.81
2023-01-11T00:56:55.464Z,100046.81
2023-01-11T00:59:23.084Z,100051.19
2023-01-11T01:01:52.547Z,100048.59
2023-01-11T01:04:20.105Z,100055.50
2023-01-11T01:06:47.504Z,100056.31
2023-01-11T01:09:15.570Z,100058.13
2023-01-11T01:11:42.889Z,100057.19
2023-01-11T01:14:31.119Z,100052.97
2023-01-11T01:17:04.667Z,100056.44
2023-01-11T01:19:39.247Z,100051.19
2023-01-11T01:22:06.487Z,100047.56
2023-01-11T01:24:35.020Z,100044.94
2023-01-11T01:27:02.379Z,100044.16
2023-01-11T01:29:29.892Z,100037.19
2023-01-11T01:31:57.397Z,100036.41
2023-01-11T01:34:24.808Z,100037.34
2023-01-11T01:36:52.283Z,100038.31
2023-01-11T01:39:19.733Z,100034.03
2023-01-11T01:41:47.161Z,100035.75
2023-01-11T01:44:51.563Z,100038.41
2023-01-11T01:47:22.401Z,100040.16
2023-01-11T01:49:49.607Z,100044.41
2023-01-11T01:52:17.650Z,100047.94
2023-01-11T01:54:48.533Z,100047.03
2023-01-11T01:57:24.148Z,100029.56
2023-01-11T01:59:53.883Z,100025.19
2023-01-11T02:02:24.403Z,100027.03
2023-01-11T02:04:53.457Z,100027.06
2023-01-11T02:07:29.829Z,100014.75
2023-01-11T02:10:10.485Z,100014.72
2023-01-11T02:12:57.781Z,100009.50
2023-01-11T02:15:25.213Z,100006.94
2023-01-11T02:17:52.549Z,100012.25
2023-01-11T02:20:31.997Z,100010.53
2023-01-11T02:23:20.681Z,100008.84
2023-01-11T02:26:13.089Z,100005.44
2023-01-11T02:28:46.528Z,100022.03
2023-01-11T02:31:26.133Z,100008.94
2023-01-11T02:34:23.136Z,100006.31
2023-01-11T02:37:18.088Z,99995.00
2023-01-11T02:40:18.330Z,100003.72
2023-01-11T02:43:07.160Z,100001.06
2023-01-11T02:45:35.352Z,100001.16
2023-01-11T02:48:12.557Z,100005.59
2023-01-11T02:51:11.307Z,99999.56
2023-01-11T02:53:44.817Z,100005.66
2023-01-11T02:56:14.252Z,99998.69
2023-01-11T02:58:45.714Z,100003.06
2023-01-11T03:01:15.623Z,100008.28
2023-01-11T03:03:44.982Z,100004.81
2023-01-11T03:06:17.456Z,100010.00
2023-01-11T03:09:26.660Z,100009.19
2023-01-11T03:12:29.263Z,99999.59
2023-01-11T03:15:11.253Z,100000.47
2023-01-11T03:17:57.766Z,99994.41
2023-01-11T03:20:34.835Z,99994.38
2023-01-11T03:23:19.419Z,99986.56
2023-01-11T03:25:46.849Z,99985.69
2023-01-11T03:28:38.382Z,99983.06
2023-01-11T03:31:13.284Z,99977.81
2023-01-11T03:33:53.851Z,99976.94
2023-01-11T03:36:29.360Z,99976.94
2023-01-11T03:39:17.618Z,99969.03
2023-01-11T03:41:46.333Z,99965.56
2023-01-11T03:44:17.284Z,99962.91
2023-01-11T03:46:48.987Z,99958.50
2023-01-11T03:49:45.765Z,99967.94
2023-01-11T03:52:16.947Z,99965.41
2023-01-11T03:54:45.758Z,99957.56
2023-01-11T03:57:21.009Z,99962.81
2023-01-11T03:59:50.143Z,99963.59
2023-01-11T04:02:28.387Z,99955.69
2023-01-11T04:04:55.609Z,99949.63
2023-01-11T04:07:23.120Z,99950.56
2023-01-11T04:09:50.576Z,99955.81
2023-01-11T04:12:17.922Z,99943.69
2023-01-11T04:14:45.437Z,99945.31
2023-01-11T04:17:12.797Z,99943.47
2023-01-11T04:19:41.427Z,99941.69
2023-01-11T04:22:09.803Z,99939.97
2023-01-11T04:24:37.294Z,99935.69
2023-01-11T04:27:04.345Z,99940.88
2023-01-11T04:29:32.763Z,99930.25
2023-01-11T04:32:00.161Z,99939.66
2023-01-11T04:34:27.613Z,99931.81
2023-01-11T04:36:55.135Z,99923.25
2023-01-11T04:39:23.642Z,99919.88
2023-01-11T04:42:09.212Z,99919.75
2023-01-11T04:44:36.381Z,99921.59
2023-01-11T04:47:03.868Z,99930.28
2023-01-11T04:49:31.376Z,99926.78
2023-01-11T04:51:58.767Z,99931.94
2023-01-11T04:54:26.319Z,99928.63
2023-01-11T04:56:53.696Z,99930.50
2023-01-11T04:59:21.180Z,99927.09
2023-01-11T05:01:48.499Z,99925.31
2023-01-11T05:04:15.766Z,99922.66
2023-01-11T05:06:44.055Z,99919.16
2023-01-11T05:09:17.225Z,99925.13
2023-01-11T05:11:45.080Z,99922.50
2023-01-11T05:14:14.734Z,99925.06
2023-01-11T05:16:42.905Z,99916.44
2023-01-11T05:19:11.562Z,99915.63
2023-01-11T05:21:42.095Z,99915.63
2023-01-11T05:24:13.518Z,99907.88
2023-01-11T05:26:43.376Z,99911.34
2023-01-11T05:29:13.566Z,99908.00
2023-01-11T05:31:41.390Z,99905.50
2023-01-11T05:34:12.622Z,99910.69
2023-01-11T05:36:40.400Z,99903.81
2023-01-11T05:39:07.985Z,99901.28
2023-01-11T05:41:35.763Z,99897.00
2023-01-11T05:44:23.200Z,99890.91
2023-01-11T05:46:50.502Z,99875.31
2023-01-11T05:49:17.949Z,99874.44
2023-01-11T05:51:46.461Z,99875.31
2023-01-11T05:54:19.971Z,99871.84
2023-01-11T05:56:48.500Z,99867.50
2023-01-11T05:59:16.019Z,99856.19
2023-01-11T06:01:43.472Z,99850.16
2023-01-11T06:04:11.099Z,99861.44
2023-01-11T06:06:44.565Z,99860.53
2023-01-11T06:09:11.977Z,99860.56
2023-01-11T06:11:39.412Z,99862.25
2023-01-11T06:14:08.887Z,99867.44
2023-01-11T06:16:36.387Z,99867.47
2023-01-11T06:19:04.038Z,99874.38
2023-01-11T06:21:31.310Z,99864.81
2023-01-11T06:23:58.685Z,99871.72
2023-01-11T06:26:26.149Z,99867.41
2023-01-11T06:28:53.829Z,99866.56
2023-01-11T06:31:21.123Z,99855.28
2023-01-11T06:33:48.607Z,99860.44
2023-01-11T06:36:16.318Z,99850.88
2023-01-11T06:38:45.066Z,99840.44
2023-01-11T06:41:13.160Z,99831.81
2023-01-11T06:43:42.480Z,99830.06
2023-01-11T06:46:17.497Z,99826.59
2023-01-11T06:48:45.583Z,99822.25
2023-01-11T06:51:14.414Z,99819.66
2023-01-11T06:53:42.823Z,99817.03
2023-01-11T06:56:23.789Z,99814.41
2023-01-11T06:58:52.528Z,99812.72
2023-01-11T07:01:20.336Z,99810.13
2023-01-11T07:03:47.839Z,99817.06
2023-01-11T07:06:15.268Z,99820.56
2023-01-11T07:08:43.735Z,99829.25
2023-01-11T07:11:12.367Z,99824.94
2023-01-11T07:13:39.609Z,99820.59
2023-01-11T07:16:07.308Z,99825.81
2023-01-11T07:18:37.624Z,99824.97
2023-01-11T07:21:07.080Z,99823.22
2023-01-11T07:23:34.680Z,99830.19
2023-01-11T07:26:06.133Z,99833.66
2023-01-11T07:28:34.596Z,99830.22
2023-01-11T07:31:02.114Z,99818.91
2023-01-11T07:33:29.573Z,99830.19
2023-01-11T07:35:58.457Z,99820.66
2023-01-11T07:38:25.963Z,99821.53
2023-01-11T07:40:53.400Z,99828.47
2023-01-11T07:43:23.649Z,99822.38
2023-01-11T07:45:57.949Z,99829.31
2023-01-11T07:48:28.149Z,99819.72
2023-01-11T07:50:57.548Z,99818.88
2023-01-11T07:53:26.625Z,99817.09
2023-01-11T07:55:56.665Z,99812.72
2023-01-11T07:58:24.481Z,99818.75
2023-01-11T08:00:52.051Z,99809.97
2023-01-11T08:03:19.246Z,99809.91
2023-01-11T08:05:54.073Z,99801.16
2023-01-11T08:08:21.932Z,99806.28
2023-01-11T08:11:09.494Z,99804.50
2023-01-11T08:13:55.410Z,99806.13
2023-01-11T08:16:22.942Z,99791.25
2023-01-11T08:18:53.518Z,99785.94
2023-01-11T08:21:21.648Z,99797.22
2023-01-11T08:23:48.849Z,99785.81
2023-01-11T08:26:18.270Z,99779.66
2023-01-11T08:28:47.161Z,99768.25
2023-01-11T08:31:14.902Z,99776.00
2023-01-11T08:33:42.556Z,99779.41
2023-01-11T08:36:12.685Z,99777.53
2023-01-11T08:38:40.546Z,99781.81
2023-01-11T08:41:11.293Z,99783.44
2023-01-11T08:43:42.771Z,99785.09
2023-01-11T08:46:11.100Z,99783.22
2023-01-11T08:48:38.715Z,99784.84
2023-01-11T08:51:06.323Z,99794.97
2023-01-11T08:53:35.827Z,99782.22
2023-01-11T08:56:04.209Z,99780.09
2023-01-11T08:58:31.646Z,99781.50
2023-01-11T09:01:00.373Z,99779.00
2023-01-11T09:03:31.182Z,99791.69
2023-01-11T09:05:58.656Z,99795.59
2023-01-11T09:08:27.325Z,99790.97
2023-01-11T09:10:56.957Z,99793.97
2023-01-11T09:13:24.528Z,99788.16
2023-01-11T09:15:56.189Z,99794.91
2023-01-11T09:18:30.774Z,99786.66
2023-01-11T09:20:57.826Z,99794.13
2023-01-11T09:23:32.200Z,99786.56
2023-01-11T09:25:59.766Z,99777.31
2023-01-11T09:28:27.178Z,99780.84
2023-01-11T09:30:54.647Z,99779.75
2023-01-11T09:33:22.080Z,99781.09
2023-01-11T09:35:52.185Z,99779.56
2023-01-11T09:38:20.028Z,99777.16
2023-01-11T09:41:03.908Z,99759.97
2023-01-11T09:43:31.518Z,99754.09
2023-01-11T09:46:08.144Z,99759.81
2023-01-11T09:48:55.271Z,99749.03
2023-01-11T09:51:34.147Z,99753.50
2023-01-11T09:54:06.138Z,99749.34
2023-01-11T09:56:46.712Z,99754.94
2023-01-11T09:59:51.012Z,99747.59
2023-01-11T10:02:51.772Z,99727.53
2023-01-11T10:05:30.073Z,99735.41
2023-01-11T10:18:28.166Z,99704.47
2023-01-11T10:18:29.799Z,99707.78
2023-01-11T10:21:13.590Z,99704.44
2023-01-11T10:23:55.200Z,99698.47
2023-01-11T10:26:32.512Z,99701.59
2023-01-11T10:29:57.861Z,99701.34
2023-01-11T10:32:50.438Z,99713.34
2023-01-11T10:35:59.158Z,99700.03
2023-01-11T10:38:59.535Z,99708.34
2023-01-11T10:41:38.055Z,99686.91
2023-01-11T10:44:32.039Z,99679.19
2023-01-11T10:47:02.129Z,99684.41
2023-01-11T10:49:57.317Z,99676.34
2023-01-11T10:52:33.704Z,99673.94
2023-01-11T10:55:13.175Z,99670.00
2023-01-11T10:57:59.835Z,99664.25
2023-01-11T11:00:49.016Z,99656.31
2023-01-11T11:03:24.649Z,99665.22
2023-01-11T11:06:30.690Z,99657.00
2023-01-11T11:09:22.931Z,99632.75
2023-01-11T11:12:10.961Z,99646.53
2023-01-11T11:14:53.191Z,99636.47
2023-01-11T11:17:24.444Z,99625.50
2023-01-11T11:19:53.745Z,99625.25
2023-01-11T11:22:21.345Z,99621.75
2023-01-11T11:25:02.828Z,99616.34
2023-01-11T11:27:51.698Z,99608.78
2023-01-11T11:30:57.090Z,99598.69
2023-01-11T11:33:39.124Z,99589.84
2023-01-11T11:36:12.564Z,99586.50
2023-01-11T11:39:05.707Z,99593.84
2023-01-11T11:41:50.135Z,99585.94
2023-01-11T11:44:28.784Z,99578.13
2023-01-11T11:47:05.634Z,99577.31
2023-01-11T11:49:37.279Z,99568.88
2023-01-11T11:52:05.839Z,99561.81
2023-01-11T11:54:41.703Z,99562.66
2023-01-11T11:57:34.024Z,99565.63
2023-01-11T12:00:26.378Z,99544.44
2023-01-11T12:03:08.020Z,99537.34
2023-01-11T12:05:35.272Z,99533.47
2023-01-11T12:08:03.471Z,99536.22
2023-01-11T12:10:36.741Z,99537.91
2023-01-11T12:13:29.695Z,99533.38
2023-01-11T12:16:06.347Z,99526.84
2023-01-11T12:18:43.672Z,99523.69
2023-01-11T12:21:26.236Z,99518.44
2023-01-11T12:24:18.638Z,99509.44
2023-01-11T12:27:20.939Z,99499.81
2023-01-11T12:30:25.409Z,99502.38
2023-01-11T12:32:54.409Z,99493.75
2023-01-11T12:35:45.723Z,99485.03
2023-01-11T12:38:16.161Z,99488.59
2023-01-11T12:41:10.066Z,99484.09
2023-01-11T12:43:46.149Z,99478.63
2023-01-11T12:46:24.164Z,99475.34
2023-01-11T12:49:04.384Z,99472.34
2023-01-11T12:52:09.113Z,99477.13
2023-01-11T12:54:55.623Z,99466.00
2023-01-11T12:58:02.125Z,99468.63
2023-01-11T13:00:38.583Z,99469.22
2023-01-11T13:03:36.955Z,99460.03
2023-01-11T13:06:15.454Z,99463.06
2023-01-11T13:09:09.837Z,99454.31
2023-01-11T13:11:46.115Z,99451.94
2023-01-11T13:14:43.786Z,99436.69
2023-01-11T13:17:28.472Z,99438.03
2023-01-11T13:20:28.728Z,99442.47
2023-01-11T13:23:19.831Z,99438.31
2023-01-11T13:25:51.149Z,99446.13
2023-01-11T13:28:35.598Z,99435.97
2023-01-11T13:31:07.778Z,99443.09
2023-01-11T13:33:38.368Z,99440.38
2023-01-11T13:36:23.707Z,99443.16
2023-01-11T13:39:28.844Z,99439.03
2023-01-11T13:42:00.856Z,99449.38
2023-01-11T13:44:31.541Z,99446.13
2023-01-11T13:47:37.112Z,99446.25
2023-01-11T13:50:22.297Z,99441.13
2023-01-11T13:53:10.122Z,99436.81
2023-01-11T13:55:40.504Z,99435.00
2023-01-11T13:58:36.859Z,99442.06
2023-01-11T14:01:15.480Z,99444.66
2023-01-11T14:03:54.379Z,99438.63
2023-01-11T14:06:43.005Z,99435.34
2023-01-11T14:09:22.277Z,99430.47
2023-01-11T14:12:00.573Z,99428.84
2023-01-11T14:14:49.550Z,99424.72
2023-01-11T14:18:14.147Z,99423.16
2023-01-11T14:20:49.541Z,99426.97
2023-01-11T14:23:32.838Z,99419.81
2023-01-11T14:26:17.782Z,99415.69
2023-01-11T14:28:54.578Z,99421.16
2023-01-11T14:31:40.233Z,99419.72
2023-01-11T14:34:33.037Z,99413.59
2023-01-11T14:37:34.268Z,99421.56
2023-01-11T14:40:43.076Z,99419.88
2023-01-11T14:43:42.638Z,99407.38
2023-01-11T14:46:45.956Z,99400.59
2023-01-11T14:49:35.807Z,99400.56
2023-01-11T14:52:38.484Z,99400.50
2023-01-11T14:55:19.301Z,99393.69
2023-01-11T14:58:17.717Z,99392.91
2023-01-11T15:00:45.147Z,99390.31
2023-01-11T15:03:19.965Z,99399.94
2023-01-11T15:06:23.775Z,99399.16
2023-01-11T15:08:55.594Z,99395.72
2023-01-11T15:11:34.782Z,99389.66
2023-01-11T15:14:22.036Z,99384.53
2023-01-11T15:17:15.769Z,99387.03
2023-01-11T15:19:44.651Z,99385.22
2023-01-11T15:22:33.445Z,99387.28
2023-01-11T15:25:17.985Z,99389.06
2023-01-11T15:27:45.674Z,99383.91
2023-01-11T15:30:31.229Z,99383.88
2023-01-11T15:33:21.039Z,99382.16
2023-01-11T15:35:59.510Z,99386.69
2023-01-11T15:39:03.681Z,99384.13
2023-01-11T15:42:12.699Z,99389.38
2023-01-11T15:45:15.265Z,99401.53
2023-01-11T15:48:20.145Z,99392.00
2023-01-11T15:51:05.910Z,99386.06
2023-01-11T15:53:59.171Z,99382.50
2023-01-11T15:57:06.907Z,99386.75
2023-01-11T16:00:10.529Z,99370.22
2023-01-11T16:02:37.479Z,99372.16
2023-01-11T16:05:39.911Z,99366.94
2023-01-11T16:08:32.453Z,99368.72
2023-01-11T16:11:42.457Z,99368.78
2023-01-11T16:14:19.228Z,99365.28
2023-01-11T16:16:52.981Z,99368.22
2023-01-11T16:19:26.727Z,99365.59
2023-01-11T16:21:59.391Z,99361.09
2023-01-11T16:24:29.816Z,99368.09
2023-01-11T16:27:00.741Z,99365.53
2023-01-11T16:29:35.256Z,99364.72
2023-01-11T16:32:08.638Z,99365.66
2023-01-11T16:34:42.698Z,99370.94
2023-01-11T16:37:39.370Z,99383.19
2023-01-11T16:40:21.962Z,99375.38
2023-01-11T16:43:07.317Z,99375.66
2023-01-11T16:45:46.303Z,99380.13
2023-01-11T16:48:20.890Z,99371.59
2023-01-11T16:51:07.631Z,99366.19
2023-01-11T16:53:42.961Z,99361.03
2023-01-11T16:56:24.024Z,99364.63
2023-01-11T16:59:16.774Z,99362.13
2023-01-11T17:01:56.599Z,99368.13
2023-01-11T17:04:54.396Z,99361.69
2023-01-11T17:07:24.772Z,99362.81
2023-01-11T17:09:53.057Z,99355.78
2023-01-11T17:12:24.629Z,99351.41
2023-01-11T17:15:04.844Z,99357.56
2023-01-11T17:17:37.432Z,99358.47
2023-01-11T17:20:16.053Z,99352.31
2023-01-11T17:22:44.774Z,99348.91
2023-01-11T17:25:37.286Z,99349.88
2023-01-11T17:28:20.999Z,99355.91
2023-01-11T17:30:52.197Z,99360.38
2023-01-11T17:33:32.011Z,99368.97
2023-01-11T17:36:01.692Z,99369.88
2023-01-11T17:38:30.419Z,99366.34
2023-01-11T17:40:58.950Z,99371.50
2023-01-11T17:43:48.206Z,99367.03
2023-01-11T17:46:23.306Z,99368.97
2023-01-11T17:48:57.390Z,99370.03
2023-01-11T17:51:33.926Z,99360.25
2023-01-11T17:54:01.431Z,99368.09
2023-01-11T17:56:42.120Z,99366.03
2023-01-11T17:59:11.970Z,99361.66
2023-01-11T18:01:40.035Z,99363.41
2023-01-11T18:04:19.252Z,99363.41
2023-01-11T18:07:04.948Z,99356.34
2023-01-11T18:09:34.251Z,99356.22
2023-01-11T18:12:23.836Z,99353.66
2023-01-11T18:14:53.031Z,99354.41
2023-01-11T18:17:39.637Z,99362.38
2023-01-11T18:20:29.815Z,99361.47
2023-01-11T18:23:16.797Z,99360.50
2023-01-11T18:25:46.791Z,99351.50
2023-01-11T18:28:38.678Z,99358.59
2023-01-11T18:31:08.024Z,99364.56
2023-01-11T18:33:35.812Z,99367.25
2023-01-11T18:36:04.870Z,99359.28
2023-01-11T18:38:36.332Z,99370.84
2023-01-11T18:41:27.539Z,99359.28
2023-01-11T18:43:57.174Z,99362.94
2023-01-11T18:46:25.045Z,99355.78
2023-01-11T18:48:52.787Z,99365.59
2023-01-11T18:51:39.736Z,99377.91
2023-01-11T18:54:16.349Z,99375.00
2023-01-11T18:56:44.303Z,99375.91
2023-01-11T18:59:11.858Z,99380.00
2023-01-11T19:01:54.510Z,99383.47
2023-01-11T19:04:27.758Z,99378.22
2023-01-11T19:06:55.360Z,99371.34
2023-01-11T19:09:23.125Z,99375.78
2023-01-11T19:11:53.088Z,99389.78
2023-01-11T19:14:21.779Z,99390.91
2023-01-11T19:16:49.485Z,99387.13
2023-01-11T19:19:17.041Z,99388.53
2023-01-11T19:21:45.415Z,99391.22
2023-01-11T19:24:19.082Z,99389.31
2023-01-11T19:26:47.484Z,99389.56
2023-01-11T19:29:19.500Z,99392.00
2023-01-11T19:31:51.035Z,99386.63
2023-01-11T19:34:19.503Z,99384.22
2023-01-11T19:36:47.226Z,99382.53
2023-01-11T19:39:14.933Z,99375.53
2023-01-11T19:41:55.518Z,99377.56
2023-01-11T19:44:25.512Z,99383.44
2023-01-11T19:47:09.566Z,99383.34
2023-01-11T19:49:38.351Z,99393.22
2023-01-11T19:52:13.238Z,99392.63
2023-01-11T19:54:46.956Z,99393.16
2023-01-11T19:57:23.223Z,99391.50
2023-01-11T19:59:51.608Z,99397.69
2023-01-11T20:02:21.620Z,99400.56
2023-01-11T20:04:49.205Z,99403.84
2023-01-11T20:07:19.472Z,99408.91
2023-01-11T20:09:46.974Z,99414.53
2023-01-11T20:12:18.759Z,99412.81
2023-01-11T20:14:47.889Z,99410.25
2023-01-11T20:17:21.352Z,99405.91
2023-01-11T20:19:54.902Z,99415.22
2023-01-11T20:22:25.178Z,99414.81
2023-01-11T20:24:52.648Z,99414.03
2023-01-11T20:27:20.621Z,99410.09
2023-01-11T20:29:48.283Z,99417.69
2023-01-11T20:32:39.140Z,99413.16
2023-01-11T20:35:05.867Z,99410.69
2023-01-11T20:37:33.510Z,99408.97
2023-01-11T20:40:02.518Z,99417.03
2023-01-11T20:42:31.919Z,99412.81
2023-01-11T20:44:59.832Z,99414.59
2023-01-11T20:47:28.438Z,99417.34
2023-01-11T20:49:55.978Z,99418.31
2023-01-11T20:52:23.446Z,99416.59
2023-01-11T20:54:51.378Z,99427.09
2023-01-11T20:57:18.660Z,99427.31
2023-01-11T20:59:47.103Z,99432.56
2023-01-11T21:02:14.370Z,99427.03
2023-01-11T21:04:41.647Z,99434.94
2023-01-11T21:07:08.988Z,99438.53
2023-01-11T21:09:36.476Z,99437.41
2023-01-11T21:12:04.113Z,99437.50
2023-01-11T21:14:31.285Z,99441.78
2023-01-11T21:16:58.779Z,99437.22
2023-01-11T21:19:26.917Z,99446.97
2023-01-11T21:21:54.242Z,99459.25
2023-01-11T21:24:21.919Z,99456.56
2023-01-11T21:26:49.235Z,99466.97
2023-01-11T21:29:22.810Z,99459.91
2023-01-11T21:31:51.009Z,99469.25
2023-01-11T21:34:19.151Z,99472.00
2023-01-11T21:36:46.671Z,99471.00
2023-01-11T21:39:15.674Z,99468.88
2023-01-11T21:41:58.608Z,99472.59
2023-01-11T21:44:33.847Z,99483.03
2023-01-11T21:47:02.819Z,99484.00
2023-01-11T21:49:31.183Z,99480.59
2023-01-11T21:52:00.054Z,99479.75
2023-01-11T21:54:27.625Z,99487.44
2023-01-11T21:56:55.097Z,99494.50
2023-01-11T21:59:22.793Z,99496.84
2023-01-11T22:01:49.844Z,99505.56
2023-01-11T22:04:19.710Z,99509.03
2023-01-11T22:06:55.145Z,99512.75
2023-01-11T22:09:27.489Z,99508.53
2023-01-11T22:11:55.776Z,99507.94
2023-01-11T22:14:30.877Z,99513.97
2023-01-11T22:16:58.266Z,99507.94
2023-01-11T22:19:25.637Z,99521.88
2023-01-11T22:21:55.207Z,99515.63
2023-01-11T22:24:22.901Z,99524.34
2023-01-11T22:26:50.072Z,99525.19
2023-01-11T22:29:17.612Z,99517.44
2023-01-11T22:31:51.543Z,99525.38
2023-01-11T22:34:19.810Z,99527.03
2023-01-11T22:36:47.359Z,99528.66
2023-01-11T22:39:17.406Z,99534.91
2023-01-11T22:41:48.126Z,99540.19
2023-01-11T22:44:16.279Z,99540.41
2023-01-11T22:46:44.144Z,99533.28
2023-01-11T22:49:12.050Z,99531.66
2023-01-11T22:51:41.543Z,99526.34
2023-01-11T22:54:09.240Z,99535.97
2023-01-11T22:56:36.461Z,99535.97
2023-01-11T22:59:04.028Z,99538.59
2023-01-11T23:01:34.974Z,99536.81
2023-01-11T23:04:04.370Z,99540.34
2023-01-11T23:06:34.465Z,99542.06
2023-01-11T23:09:02.630Z,99539.28
2023-01-11T23:11:53.868Z,99540.94
2023-01-11T23:14:21.825Z,99537.53
2023-01-11T23:16:50.792Z,99543.56
2023-01-11T23:19:20.654Z,99541.78
2023-01-11T23:21:47.986Z,99539.06
2023-01-11T23:24:17.611Z,99539.09
2023-01-11T23:26:45.583Z,99541.72
2023-01-11T23:29:13.471Z,99539.91
2023-01-11T23:31:46.383Z,99532.03
2023-01-11T23:34:14.937Z,99534.72
2023-01-11T23:36:43.797Z,99539.78
2023-01-11T23:39:16.529Z,99544.13
2023-01-11T23:42:02.623Z,99549.31
2023-01-11T23:44:31.998Z,99555.53
2023-01-11T23:47:18.987Z,99552.75
2023-01-11T23:49:46.242Z,99551.94
2023-01-11T23:52:13.792Z,99560.63
2023-01-11T23:54:43.541Z,99548.28
2023-01-11T23:57:13.754Z,99557.88
2023-01-11T23:59:42.085Z,99549.94
